Eskdale, West Virginia
Current Conditions -  °F | °C
As of 3:54 AM on Friday 28 Nov 2014 (Local Time) from KCRW Reporting Station
Light Snow Light Snow  
Wind Chill: 23°   Ceiling: 3000
Heat Index: 28°   Visibility: 1mi
Dew Point: 24°   Wind: 5mph
Humidity: 85%   Direction: 260°W
Pressure: 30.34"   Gusts: NA
Location:  38.09°N, 81.44°W
Report Text: KCRW 280854Z 26004KT 1SM -SN BR SCT014 OVC030 M02/M04 A3034 RMK AO2 SLP283 P0000 60000 T10221044 53005 RVRNO
Loading
Personal Weather Stations






























Interactive Weather Map New forecast layout! Learn more

10-Day Weather Forecast

Advertisements
Track Severe Weather on mobile